Time;durP1;ratioP1;P1;durP2;ratioP2;P2;SDS_P1;SDS_P2;PMS_P1;PMS_P2;Temp;Humidity;BMP_temperature;BMP_pressure;BME280_temperature;BME280_humidity;BME280_pressure;Samples;Min_cycle;Max_cycle;Signal;HPM_P1;HPM_P2
2021/03/14 00:00:40;;;;;;;0.80;0.80;;;8.00;67.20;;;7.40;50.40;93690.56;5037789;28;20254;-80
2021/03/14 00:03:11;;;;;;;0.68;0.68;;;8.10;67.40;;;7.40;50.24;93697.56;5037898;28;20200;-81
2021/03/14 00:05:41;;;;;;;0.90;0.90;;;8.10;67.40;;;7.39;50.05;93695.97;5037844;28;20680;-80
2021/03/14 00:08:09;;;;;;;0.82;0.82;;;8.00;67.10;;;7.39;49.89;93690.75;5054635;28;20184;-81
2021/03/14 00:10:44;;;;;;;0.90;0.90;;;8.10;67.10;;;7.37;50.48;93683.94;5037744;28;20261;-80
2021/03/14 00:13:15;;;;;;;0.70;0.70;;;8.00;67.50;;;7.37;50.33;93683.13;5038028;28;20202;-81
2021/03/14 00:15:42;;;;;;;0.70;0.70;;;8.10;67.30;;;7.37;50.68;93690.94;5054142;28;20227;-79
2021/03/14 00:18:09;;;;;;;0.80;0.80;;;8.00;67.20;;;7.36;50.45;93687.53;5054106;28;20268;-81
2021/03/14 00:20:37;;;;;;;0.77;0.77;;;8.00;67.20;;;7.35;50.21;93695.56;5037790;28;20207;-81
2021/03/14 00:23:06;;;;;;;0.60;0.60;;;8.00;67.30;;;7.27;51.33;93691.34;5070968;28;20203;-81
2021/03/14 00:25:33;;;;;;;0.68;0.68;;;8.00;67.60;;;7.31;50.90;93697.78;5054230;28;20210;-81
2021/03/14 00:28:00;;;;;;;0.80;0.80;;;8.00;67.60;;;7.30;50.46;93700.56;5054383;28;20261;-81
2021/03/14 00:30:28;;;;;;;0.60;0.60;;;8.00;67.30;;;7.31;50.43;93689.16;5037760;28;20203;-80
2021/03/14 00:32:55;;;;;;;0.80;0.80;;;8.00;67.40;;;7.32;50.43;93681.13;5037505;28;20214;-81
2021/03/14 00:35:23;;;;;;;0.50;0.50;;;8.00;67.50;;;7.32;50.72;93683.75;5070799;28;20210;-81
2021/03/14 00:37:51;;;;;;;0.60;0.60;;;8.00;67.40;;;7.30;50.68;93677.91;5070548;28;20221;-81
2021/03/14 00:40:26;;;;;;;0.70;0.70;;;7.90;67.30;;;7.28;51.02;93679.13;5054221;28;20274;-80
2021/03/14 00:42:56;;;;;;;0.63;0.63;;;7.90;67.70;;;7.20;50.87;93667.91;5070891;28;20188;-81
2021/03/14 00:45:31;;;;;;;0.70;0.70;;;8.00;67.60;;;7.23;50.57;93679.72;5070616;28;20195;-81
2021/03/14 00:48:01;;;;;;;0.90;0.90;;;7.90;67.50;;;7.17;50.61;93676.09;5054315;28;20254;-81
2021/03/14 00:50:40;;;;;;;0.63;0.63;;;7.90;67.50;;;7.12;50.23;93668.09;5054473;28;20238;-80
2021/03/14 00:53:11;;;;;;;0.80;0.80;;;7.90;67.30;;;7.14;50.56;93670.50;5038869;28;20210;-81
2021/03/14 00:55:43;;;;;;;0.70;0.70;;;7.80;67.40;;;7.12;50.06;93680.34;5070409;28;20234;-81
2021/03/14 00:58:11;;;;;;;1.00;1.00;;;7.80;67.30;;;7.08;50.53;93671.28;5037799;28;20237;-80
2021/03/14 01:00:39;;;;;;;0.60;0.60;;;7.90;67.40;;;7.07;50.62;93667.09;5037477;28;20199;-79
2021/03/14 01:03:06;;;;;;;0.88;0.88;;;7.80;67.30;;;7.05;50.25;93659.47;5037596;28;20207;-80
2021/03/14 01:05:39;;;;;;;0.70;0.70;;;7.80;67.30;;;7.03;50.00;93662.28;5057137;28;20550;-80
2021/03/14 01:08:10;;;;;;;0.80;0.80;;;7.70;67.20;;;6.99;50.33;93661.06;5057874;28;20200;-81
2021/03/14 01:10:37;;;;;;;0.70;0.70;;;7.70;67.20;;;6.97;50.12;93655.28;5057785;28;20818;-80
2021/03/14 01:13:10;;;;;;;0.70;0.70;;;7.70;68.20;;;6.96;50.05;93653.66;5058271;28;20175;-81
2021/03/14 01:15:37;;;;;;;0.80;0.80;;;7.70;67.40;;;6.93;50.30;93651.44;5057249;28;20191;-80
2021/03/14 01:18:05;;;;;;;0.70;0.70;;;7.70;67.40;;;6.90;50.32;93651.84;5057221;28;20223;-81
2021/03/14 01:20:32;;;;;;;0.80;0.80;;;7.60;67.50;;;6.89;50.74;93655.47;5041038;28;20192;-80
2021/03/14 01:22:59;;;;;;;0.80;0.80;;;7.70;67.60;;;6.88;50.61;93659.88;5057134;28;20226;-81
2021/03/14 01:25:26;;;;;;;0.90;0.90;;;7.60;67.50;;;6.85;50.97;93654.25;5057419;28;20680;-81
2021/03/14 01:27:53;;;;;;;0.70;0.70;;;7.60;67.80;;;6.82;51.22;93655.47;5074294;28;20231;-81
2021/03/14 01:30:21;;;;;;;0.60;0.60;;;7.60;67.80;;;6.79;51.56;93653.25;5057263;28;20282;-80
2021/03/14 01:32:49;;;;;;;0.70;0.70;;;7.60;68.10;;;6.80;52.22;93657.47;5057008;28;20203;-81
2021/03/14 01:35:18;;;;;;;0.80;0.80;;;7.50;68.30;;;6.81;51.98;93658.25;5074010;28;20188;-80
2021/03/14 01:37:45;;;;;;;0.60;0.60;;;7.50;68.20;;;6.81;51.65;93655.66;5056907;28;20207;-81
2021/03/14 01:40:15;;;;;;;1.20;1.10;;;7.60;68.30;;;6.78;52.11;93641.22;5040547;28;20205;-81
2021/03/14 01:42:43;;;;;;;0.90;0.90;;;7.50;68.40;;;6.78;51.83;93643.81;5073398;28;20260;-79
2021/03/14 01:45:12;;;;;;;0.90;0.90;;;7.50;68.40;;;6.78;51.85;93643.03;5073630;28;20201;-81
2021/03/14 01:47:43;;;;;;;0.70;0.70;;;7.50;68.50;;;6.78;51.92;93632.59;5073568;28;20235;-81
2021/03/14 01:50:17;;;;;;;1.02;0.80;;;7.50;68.50;;;6.79;51.80;93623.78;5073442;28;20203;-81
2021/03/14 01:52:45;;;;;;;0.80;0.80;;;7.50;68.50;;;6.78;51.59;93611.75;5056971;28;20223;-81
2021/03/14 01:55:15;;;;;;;0.80;0.80;;;7.50;68.40;;;6.75;51.86;93612.97;5056926;28;20237;-81
2021/03/14 01:57:43;;;;;;;0.85;0.85;;;7.50;68.50;;;6.76;52.23;93619.75;5056530;28;20586;-80
2021/03/14 02:00:14;;;;;;;0.70;0.70;;;7.50;68.70;;;6.75;52.46;93620.78;5072993;28;20606;-80
2021/03/14 02:02:42;;;;;;;0.88;0.88;;;7.50;68.90;;;6.77;52.21;93617.97;5056416;28;20215;-81
2021/03/14 02:05:12;;;;;;;0.70;0.70;;;7.50;68.80;;;6.79;52.05;93616.75;5061211;28;20187;-80
2021/03/14 02:07:42;;;;;;;0.80;0.80;;;7.50;68.90;;;6.81;52.35;93608.75;5056354;28;20207;-80
2021/03/14 02:10:12;;;;;;;0.80;0.80;;;7.50;68.90;;;6.81;52.73;93612.16;5056702;28;20192;-80
2021/03/14 02:12:53;;;;;;;0.80;0.80;;;7.50;69.00;;;6.83;52.48;93596.31;5072476;28;20211;-80
2021/03/14 02:15:20;;;;;;;1.10;1.10;;;7.50;69.40;;;6.81;53.25;93591.31;5056171;28;20210;-81
2021/03/14 02:17:48;;;;;;;1.13;1.10;;;7.50;69.00;;;6.83;52.35;93585.91;5072593;28;20244;-81
2021/03/14 02:20:26;;;;;;;0.80;0.80;;;7.60;69.10;;;6.79;53.12;93582.88;5072733;28;20202;-80
2021/03/14 02:23:07;;;;;;;1.52;1.10;;;7.50;69.50;;;6.78;52.30;93589.09;5055576;28;20176;-79
2021/03/14 02:25:46;;;;;;;0.80;0.80;;;7.50;69.30;;;6.78;52.38;93596.91;5065098;28;20195;-80
2021/03/14 02:28:14;;;;;;;0.85;0.85;;;7.50;69.20;;;6.78;52.27;93591.69;5049028;28;20596;-81
2021/03/14 02:30:42;;;;;;;0.90;0.90;;;7.50;68.90;;;6.73;51.92;93576.66;5035761;28;20196;-81
2021/03/14 02:33:13;;;;;;;1.23;1.00;;;7.50;69.00;;;6.77;52.05;93584.88;5035458;28;20204;-81
2021/03/14 02:35:44;;;;;;;1.08;1.00;;;7.50;69.00;;;6.76;52.35;93579.88;5019524;28;20228;-80
2021/03/14 02:38:13;;;;;;;1.00;1.00;;;7.40;69.00;;;6.73;52.06;93581.09;5038162;28;20257;-80
2021/03/14 02:40:42;;;;;;;1.10;1.10;;;7.50;69.00;;;6.72;52.38;93588.09;5089031;28;20279;-81
2021/03/14 02:43:10;;;;;;;1.83;1.30;;;7.50;69.20;;;6.73;52.77;93594.91;5056045;28;20195;-80
2021/03/14 02:45:37;;;;;;;1.20;1.20;;;7.50;69.20;;;6.72;53.10;93582.09;5037622;28;20716;-80
2021/03/14 02:48:06;;;;;;;1.00;1.00;;;7.40;69.30;;;6.71;53.18;93578.69;5055626;28;20187;-80
2021/03/14 02:50:34;;;;;;;0.95;0.95;;;7.40;69.20;;;6.75;52.81;93593.91;5055745;28;20193;-80
2021/03/14 02:53:02;;;;;;;0.98;0.98;;;7.40;69.20;;;6.72;52.75;93590.69;5088736;28;20241;-80
2021/03/14 02:55:30;;;;;;;1.00;1.00;;;7.40;69.20;;;6.77;52.73;93603.13;5055404;28;20245;-81
2021/03/14 02:57:58;;;;;;;0.90;0.90;;;7.40;69.30;;;6.79;52.92;93600.34;5055414;28;20227;-81
2021/03/14 03:00:27;;;;;;;0.80;0.80;;;7.40;69.30;;;6.80;52.52;93584.50;5072113;28;20234;-80
2021/03/14 03:02:56;;;;;;;0.93;0.93;;;7.40;69.40;;;6.83;52.49;93578.88;5071801;28;20188;-81
2021/03/14 03:05:25;;;;;;;1.10;1.10;;;7.40;69.40;;;6.86;52.90;93578.47;5072118;28;20195;-81
2021/03/14 03:07:55;;;;;;;0.90;0.90;;;7.50;69.50;;;6.88;52.69;93566.06;5071792;28;20205;-81
2021/03/14 03:10:30;;;;;;;0.90;0.90;;;7.50;69.40;;;6.92;52.39;93561.25;5071839;28;20187;-81
2021/03/14 03:12:59;;;;;;;0.93;0.93;;;7.50;69.40;;;6.93;52.82;93565.41;5038684;28;20198;-81
2021/03/14 03:15:27;;;;;;;1.00;1.00;;;7.50;69.50;;;6.95;52.57;93573.06;5088659;28;20679;-81
2021/03/14 03:17:55;;;;;;;0.80;0.80;;;7.60;69.60;;;6.95;52.64;93571.25;5071207;28;20203;-80
2021/03/14 03:20:25;;;;;;;0.80;0.80;;;7.60;69.50;;;6.97;52.94;93582.28;5088607;28;20199;-81
2021/03/14 03:22:52;;;;;;;1.00;1.00;;;7.60;69.40;;;7.00;52.85;93583.69;5055110;28;20223;-81
2021/03/14 03:25:19;;;;;;;1.10;1.10;;;7.60;69.50;;;7.01;53.32;93580.06;5042624;28;20204;-80
2021/03/14 03:27:46;;;;;;;0.80;0.80;;;7.60;69.50;;;6.98;53.01;93568.25;5048808;28;20676;-81
2021/03/14 03:30:16;;;;;;;1.02;0.80;;;7.60;69.50;;;7.03;52.89;93576.25;5049355;28;20188;-80
2021/03/14 03:32:45;;;;;;;1.50;0.90;;;7.60;69.60;;;7.07;52.55;93574.03;5037559;28;20219;-81
2021/03/14 03:35:17;;;;;;;1.00;1.00;;;7.70;69.60;;;7.10;52.84;93560.59;5050017;28;20203;-80
2021/03/14 03:37:49;;;;;;;0.90;0.90;;;7.70;69.70;;;7.12;52.51;93557.78;5055183;28;20261;-81
2021/03/14 03:40:22;;;;;;;0.90;0.90;;;7.70;69.70;;;7.11;52.61;93543.94;5065024;28;20280;-81
2021/03/14 03:43:06;;;;;;;0.95;0.95;;;7.70;69.60;;;7.14;52.81;93540.94;5056862;28;20207;-81
2021/03/14 03:45:38;;;;;;;0.75;0.75;;;7.70;69.70;;;7.13;52.40;93541.13;5050169;28;20712;-80
2021/03/14 03:48:13;;;;;;;0.90;0.90;;;7.70;69.60;;;7.06;52.38;93535.94;5056998;28;20295;-81
2021/03/14 03:50:49;;;;;;;0.98;0.98;;;7.80;69.50;;;7.08;52.52;93543.53;5053772;28;20361;-81
2021/03/14 03:53:18;;;;;;;0.80;0.80;;;7.70;69.40;;;7.03;52.44;93546.75;5046763;28;20269;-80
2021/03/14 03:55:46;;;;;;;0.70;0.70;;;7.70;69.20;;;6.99;52.60;93553.41;5076691;28;20215;-81
2021/03/14 03:58:13;;;;;;;1.08;0.90;;;7.70;69.30;;;6.96;52.57;93546.78;5058856;28;20234;-80
2021/03/14 04:00:40;;;;;;;0.90;0.90;;;7.70;69.40;;;6.92;53.28;93552.59;5044080;28;20570;-80
2021/03/14 04:03:09;;;;;;;1.00;1.00;;;7.70;69.40;;;6.90;52.73;93550.19;5038539;28;20299;-80
2021/03/14 04:05:37;;;;;;;1.27;1.00;;;7.70;69.40;;;6.87;53.83;93550.59;5062772;28;20402;-81
2021/03/14 04:08:05;;;;;;;1.65;1.10;;;7.60;69.60;;;6.85;54.71;93545.59;5049885;28;20274;-81
2021/03/14 04:10:32;;;;;;;1.00;1.00;;;7.60;70.00;;;6.85;53.88;93536.97;5067501;28;20403;-81
2021/03/14 04:13:00;;;;;;;0.80;0.80;;;7.60;69.90;;;6.85;53.48;93542.19;5063751;28;20203;-79
2021/03/14 04:15:31;;;;;;;1.27;1.17;;;7.60;69.90;;;6.85;54.06;93539.59;5034179;28;20551;-79
2021/03/14 04:17:58;;;;;;;1.10;1.00;;;7.60;70.20;;;6.84;54.49;93530.16;5052195;28;20277;-79
2021/03/14 04:20:32;;;;;;;1.30;1.20;;;7.60;70.30;;;6.84;53.53;93538.78;5036118;28;20249;-79
2021/03/14 04:23:05;;;;;;;1.20;1.10;;;7.60;70.30;;;6.80;54.06;93532.38;5036225;28;20190;-80
2021/03/14 04:25:33;;;;;;;1.02;1.00;;;7.60;70.30;;;6.84;54.26;93541.38;5049177;28;20728;-79
2021/03/14 04:28:02;;;;;;;1.30;1.20;;;7.60;71.30;;;6.85;54.42;93547.41;5044938;28;20657;-80
2021/03/14 04:30:31;;;;;;;1.33;1.00;;;7.50;70.50;;;6.87;54.65;93566.22;5046798;28;20223;-79
2021/03/14 04:32:58;;;;;;;1.25;1.13;;;7.50;70.50;;;6.88;54.79;93567.84;5029810;28;20282;-79
2021/03/14 04:35:26;;;;;;;1.00;1.00;;;7.60;70.70;;;6.89;54.43;93580.66;5068301;28;20290;-79
2021/03/14 04:37:54;;;;;;;1.08;1.00;;;7.50;70.50;;;6.93;55.08;93591.47;5065332;28;20246;-80
2021/03/14 04:40:22;;;;;;;1.50;1.20;;;7.60;70.80;;;6.94;54.91;93580.06;5033530;28;20246;-79
2021/03/14 04:42:53;;;;;;;1.40;1.30;;;7.60;71.10;;;6.94;55.11;93595.69;5031438;28;20199;-81
2021/03/14 04:45:22;;;;;;;1.48;1.38;;;7.60;71.00;;;6.95;55.22;93592.09;5069891;28;20192;-80
2021/03/14 04:47:50;;;;;;;1.38;1.00;;;7.60;71.00;;;6.95;55.16;93602.53;5069298;28;20196;-80
2021/03/14 04:50:23;;;;;;;1.38;1.27;;;7.60;71.10;;;6.92;55.47;93602.94;5062733;28;20202;-79
2021/03/14 04:52:53;;;;;;;1.20;1.20;;;7.60;71.30;;;6.95;55.17;93593.91;5032431;28;20199;-79
2021/03/14 04:55:21;;;;;;;4.38;1.38;;;7.60;71.10;;;6.96;54.94;93598.91;5055959;28;20190;-80
2021/03/14 04:57:50;;;;;;;1.20;1.20;;;7.60;71.00;;;6.92;55.68;93605.53;5055977;28;20207;-81
2021/03/14 05:00:20;;;;;;;1.40;1.25;;;7.60;71.10;;;6.88;55.61;93596.50;5056562;28;20223;-80
2021/03/14 05:02:51;;;;;;;2.28;1.50;;;7.60;71.10;;;6.84;55.60;93590.09;5038503;28;20195;-80
2021/03/14 05:05:19;;;;;;;2.10;1.65;;;7.60;71.10;;;6.82;55.80;93572.06;5051855;28;20210;-80
2021/03/14 05:07:48;;;;;;;3.22;2.90;;;7.60;71.30;;;6.78;55.59;93568.25;5068621;28;20189;-80
2021/03/14 05:10:21;;;;;;;2.50;2.08;;;7.60;71.20;;;6.79;54.94;93553.44;5052134;28;20216;-80
2021/03/14 05:12:49;;;;;;;2.25;1.60;;;7.50;70.90;;;6.73;55.15;93563.63;5052173;28;20322;-80
2021/03/14 05:15:18;;;;;;;2.33;2.05;;;7.50;70.80;;;6.71;55.06;93572.66;5056154;28;20202;-80
2021/03/14 05:17:47;;;;;;;1.65;1.55;;;7.50;70.80;;;6.66;55.60;93583.69;5049833;28;20211;-80
2021/03/14 05:20:20;;;;;;;2.67;2.47;;;7.50;70.70;;;6.64;55.14;93596.13;5048276;28;20677;-79
2021/03/14 05:22:52;;;;;;;2.35;1.27;;;7.40;70.90;;;6.59;55.88;93608.91;5050684;28;20207;-81
2021/03/14 05:25:19;;;;;;;1.25;1.20;;;7.40;71.20;;;6.58;55.84;93612.56;5019335;28;20646;-81
2021/03/14 05:27:54;;;;;;;1.20;1.20;;;7.40;71.10;;;6.54;55.91;93599.13;5019654;28;20223;-81
2021/03/14 05:30:25;;;;;;;1.17;1.17;;;7.30;71.10;;;6.54;55.45;93596.50;5037416;28;20220;-81
2021/03/14 05:32:55;;;;;;;1.77;1.60;;;7.30;71.00;;;6.52;55.78;93613.34;5064810;28;20271;-81
2021/03/14 05:35:28;;;;;;;1.30;1.20;;;7.30;71.00;;;6.49;55.48;93624.16;5054893;28;20278;-81
2021/03/14 05:37:58;;;;;;;2.05;1.65;;;7.30;71.10;;;6.51;55.17;93632.59;5071731;28;20658;-82
2021/03/14 05:40:28;;;;;;;1.50;1.40;;;7.20;70.90;;;6.50;55.06;93642.19;5034832;28;20231;-80
2021/03/14 05:42:57;;;;;;;1.30;1.20;;;7.20;71.10;;;6.49;55.32;93653.59;5066877;28;20724;-80
2021/03/14 05:45:26;;;;;;;1.60;1.50;;;7.20;71.00;;;6.48;55.81;93646.81;5070217;28;20216;-80
2021/03/14 05:47:53;;;;;;;1.48;1.38;;;7.20;71.10;;;6.48;55.27;93646.81;5052199;28;20204;-80
2021/03/14 05:50:29;;;;;;;1.50;1.40;;;7.20;71.00;;;6.47;55.10;93641.78;5034830;28;20199;-81
2021/03/14 05:52:59;;;;;;;1.98;1.42;;;7.30;71.10;;;6.45;55.31;93649.78;5051855;28;20192;-81
2021/03/14 05:55:26;;;;;;;1.50;1.40;;;7.20;71.00;;;6.41;55.29;93659.81;5036892;28;20258;-81
2021/03/14 05:57:55;;;;;;;1.40;1.30;;;7.20;71.00;;;6.45;54.81;93664.63;5060152;28;20239;-80
2021/03/14 06:00:30;;;;;;;1.75;1.50;;;7.20;71.80;;;6.49;54.61;93676.25;5051386;28;20231;-81
2021/03/14 06:02:59;;;;;;;1.50;1.40;;;7.20;70.90;;;6.49;54.92;93682.25;5064679;28;20274;-80
2021/03/14 06:05:29;;;;;;;1.48;1.30;;;7.20;71.00;;;6.51;54.63;93682.06;5038283;28;20240;-81
2021/03/14 06:07:57;;;;;;;1.50;1.40;;;7.20;70.90;;;6.53;54.76;93690.47;5036690;28;20203;-81
2021/03/14 06:10:26;;;;;;;1.92;1.63;;;7.20;70.90;;;6.56;54.72;93666.66;5071399;28;20199;-81
2021/03/14 06:12:53;;;;;;;2.25;1.40;;;7.20;70.90;;;6.57;54.87;93657.84;5055596;28;20206;-82
2021/03/14 06:15:20;;;;;;;1.50;1.40;;;7.20;70.80;;;6.60;54.58;93665.25;5040119;28;20231;-80
2021/03/14 06:17:48;;;;;;;3.67;1.75;;;7.20;70.80;;;6.63;54.29;93666.66;5056552;28;20210;-80
2021/03/14 06:20:41;;;;;;;1.48;1.38;;;7.20;70.60;;;6.67;54.10;93675.69;5072943;28;20219;-82
2021/03/14 06:23:13;;;;;;;1.80;1.70;;;7.30;70.50;;;6.69;53.66;93676.31;5055421;28;20203;-81
2021/03/14 06:25:43;;;;;;;1.73;1.63;;;7.40;70.50;;;6.68;53.92;93685.13;5056308;28;20206;-80
2021/03/14 06:28:12;;;;;;;1.98;1.60;;;7.40;70.50;;;6.69;53.77;93686.72;5071441;28;20207;-81
2021/03/14 06:30:40;;;;;;;1.70;1.60;;;7.30;70.50;;;6.72;53.83;93692.31;5089864;28;20214;-81
2021/03/14 06:33:18;;;;;;;2.10;1.90;;;7.40;70.50;;;6.73;53.98;93693.13;5072457;28;20237;-80
2021/03/14 06:35:46;;;;;;;2.90;1.80;;;7.40;70.40;;;6.76;53.87;93684.91;5072508;28;20211;-82
2021/03/14 06:38:33;;;;;;;1.70;1.60;;;7.40;70.40;;;6.80;53.77;93708.75;5072413;28;20195;-81
2021/03/14 06:41:02;;;;;;;2.53;1.45;;;7.40;70.30;;;6.85;53.62;93706.38;5068790;28;20219;-81
2021/03/14 06:43:49;;;;;;;2.15;1.67;;;7.40;70.40;;;6.89;53.42;93699.75;5052651;28;20196;-80
2021/03/14 06:46:25;;;;;;;2.00;1.60;;;7.40;70.30;;;6.95;53.34;93714.63;5052254;28;20721;-81
2021/03/14 06:49:16;;;;;;;1.80;1.67;;;7.50;70.30;;;6.94;53.32;93710.41;5052199;28;20219;-81
2021/03/14 06:51:44;;;;;;;2.88;1.52;;;7.50;70.20;;;7.00;53.21;93721.84;5051731;28;20208;-81
2021/03/14 06:54:22;;;;;;;2.00;1.60;;;7.70;70.30;;;7.01;53.49;93732.06;5052242;28;20223;-81
2021/03/14 06:56:59;;;;;;;2.42;1.70;;;7.60;70.30;;;7.03;53.07;93745.72;5052082;28;20231;-81
2021/03/14 06:59:26;;;;;;;2.03;1.75;;;7.60;70.00;;;7.00;52.72;93743.50;5051464;28;20234;-80
2021/03/14 07:02:04;;;;;;;2.00;1.80;;;7.60;69.90;;;7.00;52.77;93735.66;5051806;28;20704;-82
2021/03/14 07:04:42;;;;;;;2.63;1.50;;;7.60;69.80;;;7.02;53.04;93749.31;5050755;28;20257;-82
2021/03/14 07:07:21;;;;;;;1.60;1.50;;;7.60;70.00;;;7.12;53.03;93751.53;5051093;28;20230;-80
2021/03/14 07:10:11;;;;;;;2.60;1.70;;;7.70;70.10;;;7.27;53.22;93750.53;5051800;28;20566;-80
2021/03/14 07:12:44;;;;;;;2.20;1.40;;;7.70;70.20;;;7.48;53.30;93745.13;5050390;28;20223;-81
2021/03/14 07:15:23;;;;;;;1.70;1.60;;;7.80;70.70;;;7.71;52.72;93746.50;5066786;28;20278;-81
2021/03/14 07:17:55;;;;;;;3.15;1.90;;;7.90;70.70;;;7.82;52.01;93711.97;5050049;28;20192;-82
2021/03/14 07:20:26;;;;;;;3.42;1.75;;;8.00;70.40;;;7.98;51.94;93725.56;5049901;28;20208;-81
2021/03/14 07:23:08;;;;;;;2.47;1.70;;;8.10;70.30;;;8.04;51.32;93714.31;5049561;28;20287;-81
2021/03/14 07:25:41;;;;;;;2.00;1.85;;;8.20;70.10;;;8.09;51.70;93719.75;5052613;28;20195;-81
2021/03/14 07:28:08;;;;;;;1.95;1.63;;;8.30;70.00;;;8.16;51.16;93727.53;5053829;28;20245;-81
2021/03/14 07:30:34;;;;;;;1.30;1.25;;;8.40;69.80;;;8.21;50.98;93740.78;5038199;28;20201;-81
2021/03/14 07:33:02;;;;;;;2.05;1.52;;;8.50;69.90;;;8.27;51.31;93744.38;5054611;28;20199;-81
2021/03/14 07:35:29;;;;;;;1.52;1.42;;;8.60;69.80;;;8.35;51.04;93733.72;5054964;28;20234;-80
2021/03/14 07:37:57;;;;;;;2.33;1.50;;;8.60;69.70;;;8.41;51.21;93742.50;5038110;28;20256;-82
2021/03/14 07:40:29;;;;;;;3.20;1.63;;;8.80;70.60;;;8.50;50.96;93725.63;5040780;28;20215;-81
2021/03/14 07:43:00;;;;;;;1.90;1.45;;;8.80;69.50;;;8.63;50.43;93709.09;5036644;28;20630;-81
2021/03/14 07:45:30;;;;;;;1.70;1.60;;;8.90;69.30;;;8.73;49.94;93729.56;5055163;28;20199;-81
2021/03/14 07:47:59;;;;;;;2.03;1.65;;;8.90;69.30;;;8.84;50.48;93759.44;5054503;28;20188;-81
2021/03/14 07:50:43;;;;;;;1.60;1.50;;;9.00;69.50;;;8.94;50.58;93772.88;5088256;28;20191;-81
2021/03/14 07:53:13;;;;;;;1.50;1.40;;;9.10;69.20;;;8.97;49.64;93790.75;5055221;28;20199;-82
2021/03/14 07:55:50;;;;;;;1.38;1.27;;;9.20;69.00;;;8.96;49.19;93808.25;5054791;28;20197;-79
2021/03/14 07:58:22;;;;;;;1.50;1.40;;;9.30;68.30;;;8.93;49.29;93803.44;5086643;28;20290;-79
2021/03/14 08:00:49;;;;;;;1.63;1.35;;;9.30;68.40;;;8.86;48.96;93821.00;5087497;28;20211;-79
2021/03/14 08:03:16;;;;;;;1.70;1.30;;;9.30;68.00;;;8.86;49.58;93841.09;5054600;28;20666;-80
2021/03/14 08:05:45;;;;;;;1.70;1.60;;;9.30;68.10;;;8.84;49.06;93837.88;5054651;28;20770;-82
2021/03/14 08:08:32;;;;;;;1.40;1.30;;;9.40;67.90;;;8.76;49.42;93849.38;5070729;28;20230;-82
2021/03/14 08:10:59;;;;;;;2.13;1.40;;;9.30;67.90;;;8.72;49.61;93849.00;5071164;28;20733;-81
2021/03/14 08:13:32;;;;;;;1.50;1.40;;;9.30;67.80;;;8.68;49.38;93858.25;5071061;28;20661;-82
2021/03/14 08:16:05;;;;;;;1.73;1.52;;;9.30;67.70;;;8.64;49.62;93849.22;5058600;28;20754;-81
2021/03/14 08:18:38;;;;;;;1.40;1.30;;;9.30;67.80;;;8.64;49.70;93860.47;5058252;28;20209;-82
2021/03/14 08:21:20;;;;;;;2.47;1.40;;;9.30;67.80;;;8.61;49.64;93867.94;5075167;28;20276;-81
2021/03/14 08:24:02;;;;;;;1.40;1.30;;;9.30;67.80;;;8.58;49.91;93878.78;5060277;28;20711;-81
2021/03/14 08:26:34;;;;;;;1.50;1.40;;;9.20;67.80;;;8.55;49.93;93887.84;5058444;28;20685;-81
2021/03/14 08:29:13;;;;;;;1.95;1.38;;;9.20;67.80;;;8.45;49.84;93888.22;5074721;28;20203;-81
2021/03/14 08:31:54;;;;;;;2.58;1.40;;;9.10;67.80;;;8.38;50.14;93894.47;5074985;28;20246;-81
2021/03/14 08:34:45;;;;;;;1.60;1.50;;;9.10;67.80;;;8.27;50.36;93901.91;5074860;28;20294;-82
2021/03/14 08:37:24;;;;;;;2.28;1.50;;;9.00;67.80;;;8.23;50.01;93892.09;5074873;28;20234;-82
2021/03/14 08:40:05;;;;;;;1.58;1.48;;;9.00;68.00;;;8.18;50.23;93898.72;5087929;28;20215;-83
2021/03/14 08:43:08;;;;;;;1.77;1.40;;;8.90;67.90;;;8.16;50.41;93900.72;5057348;28;20230;-83
2021/03/14 08:45:48;;;;;;;2.15;1.35;;;8.90;68.00;;;8.15;50.68;93906.16;5051960;28;20208;-82
2021/03/14 08:48:41;;;;;;;1.60;1.50;;;8.80;68.10;;;8.11;50.81;93891.88;5060600;28;20203;-83
2021/03/14 08:51:11;;;;;;;1.33;1.20;;;8.80;68.20;;;8.07;50.90;93886.25;5057768;28;20687;-82
2021/03/14 08:53:41;;;;;;;1.30;1.20;;;8.70;68.30;;;8.13;50.62;93888.06;5074665;28;20200;-82
2021/03/14 08:56:18;;;;;;;1.20;1.20;;;8.70;68.50;;;8.11;50.80;93884.06;5075584;28;20317;-83
2021/03/14 08:59:08;;;;;;;1.55;1.20;;;8.70;68.50;;;8.17;50.70;93891.09;5074883;28;20783;-81
2021/03/14 09:01:38;;;;;;;1.40;1.10;;;8.70;68.70;;;8.21;50.98;93905.34;5073719;28;20223;-82
2021/03/14 09:04:38;;;;;;;1.90;1.40;;;8.70;68.70;;;8.14;50.86;93918.41;5074452;28;20203;-82
2021/03/14 09:07:15;;;;;;;1.27;1.17;;;8.70;68.90;;;8.09;51.37;93922.63;5057753;28;20577;-81
2021/03/14 09:09:46;;;;;;;2.20;1.20;;;8.70;68.80;;;7.92;51.48;93948.31;5030872;28;20203;-82
2021/03/14 09:12:36;;;;;;;1.10;1.10;;;8.70;68.70;;;7.65;51.80;93943.88;5042246;28;20228;-83
2021/03/14 09:15:14;;;;;;;1.48;1.30;;;8.50;68.60;;;7.38;52.75;93935.16;5045746;28;20207;-83
2021/03/14 09:18:00;;;;;;;1.65;1.25;;;8.40;69.10;;;7.19;53.83;93937.50;5060567;28;20555;-81
2021/03/14 09:20:29;;;;;;;1.60;1.30;;;8.20;69.40;;;7.10;55.02;93941.25;5041712;28;20254;-81
2021/03/14 09:22:56;;;;;;;3.55;1.42;;;8.10;69.90;;;7.01;54.93;93938.03;5069190;28;20825;-82
2021/03/14 09:25:31;;;;;;;3.78;1.60;;;8.00;70.00;;;7.00;55.87;93940.81;5038188;28;20203;-81
2021/03/14 09:27:59;;;;;;;3.35;1.60;;;7.90;70.50;;;7.00;55.87;93949.44;5021023;28;20366;-81
2021/03/14 09:30:41;;;;;;;2.63;1.50;;;7.80;70.80;;;7.03;55.39;93938.63;5039226;28;20192;-81
2021/03/14 09:33:09;;;;;;;3.92;1.70;;;7.70;70.90;;;7.04;56.26;93940.25;5053485;28;20250;-82
2021/03/14 09:35:46;;;;;;;2.50;1.50;;;7.70;71.50;;;7.13;56.44;93942.66;5039021;28;20261;-80
2021/03/14 09:38:22;;;;;;;3.70;1.55;;;7.70;71.70;;;7.21;56.52;93934.69;5054656;28;20200;-81
2021/03/14 09:41:09;;;;;;;2.15;1.67;;;7.70;72.10;;;7.30;56.29;93920.50;5039976;28;20309;-82
2021/03/14 09:43:42;;;;;;;4.97;1.70;;;7.70;72.10;;;7.43;56.13;93919.72;5039402;28;20218;-81
2021/03/14 09:46:29;;;;;;;2.72;1.52;;;7.80;72.20;;;7.43;56.00;93924.13;5053433;28;20226;-81
2021/03/14 09:49:19;;;;;;;3.58;1.50;;;7.90;72.10;;;7.42;55.57;93939.00;5040383;28;20282;-82
2021/03/14 09:51:58;;;;;;;4.38;1.40;;;7.90;71.80;;;7.35;55.20;93941.56;5053716;28;20215;-82
2021/03/14 09:54:31;;;;;;;2.25;1.70;;;7.90;71.50;;;7.32;56.21;93952.41;5053668;28;20680;-83
2021/03/14 09:56:58;;;;;;;3.17;1.70;;;7.80;71.60;;;7.30;55.77;93943.13;5053600;28;20227;-83
2021/03/14 09:59:34;;;;;;;3.28;1.80;;;7.90;71.70;;;7.36;55.64;93942.34;5053335;28;20558;-84
2021/03/14 10:02:13;;;;;;;3.28;1.50;;;7.90;71.90;;;7.43;55.95;93950.22;5051569;28;20227;-83
2021/03/14 10:05:00;;;;;;;4.32;2.20;;;7.90;72.10;;;7.49;56.12;93957.25;5067834;28;20195;-83
2021/03/14 10:07:28;;;;;;;3.72;2.10;;;7.90;72.10;;;7.55;55.98;93963.50;5046042;28;20220;-83
2021/03/14 10:10:00;;;;;;;5.82;2.88;;;7.90;72.10;;;7.60;54.86;93961.91;5073573;28;20207;-82
2021/03/14 10:12:44;;;;;;;3.25;1.95;;;8.00;72.00;;;7.64;55.02;93965.75;5044863;28;20227;-83
2021/03/14 10:15:16;;;;;;;2.05;1.85;;;8.00;71.80;;;7.62;54.90;93962.53;5056653;28;20199;-84
2021/03/14 10:17:48;;;;;;;3.80;1.77;;;8.10;71.50;;;7.59;54.23;93973.38;5058482;28;20619;-83
2021/03/14 10:20:21;;;;;;;2.40;1.88;;;8.10;71.20;;;7.59;53.84;93994.25;5071584;28;20211;-83
2021/03/14 10:23:01;;;;;;;4.45;1.83;;;8.10;70.90;;;7.53;53.56;93989.78;5057272;28;20199;-83
2021/03/14 10:25:55;;;;;;;3.20;2.00;;;8.10;70.50;;;7.52;53.66;93998.63;5065353;28;20223;-82
2021/03/14 10:28:40;;;;;;;2.38;2.10;;;8.10;70.70;;;7.48;53.39;94003.44;5023944;28;20212;-83
2021/03/14 10:31:33;;;;;;;3.97;2.30;;;8.10;70.60;;;7.49;53.19;94002.41;5052850;28;20223;-82
2021/03/14 10:34:05;;;;;;;3.10;2.00;;;8.00;70.30;;;7.53;53.11;94001.03;5037643;28;20376;-82
2021/03/14 10:36:35;;;;;;;2.85;1.88;;;8.10;70.40;;;7.62;53.28;94001.66;5036060;28;20247;-83
2021/03/14 10:39:07;;;;;;;3.83;2.20;;;8.10;70.70;;;7.79;52.58;94004.72;5036469;28;20219;-83
2021/03/14 10:41:46;;;;;;;2.20;2.00;;;8.10;70.70;;;7.90;52.22;94000.75;5021738;28;20232;-83
2021/03/14 10:44:21;;;;;;;2.53;1.67;;;8.20;70.30;;;8.04;51.62;94016.44;5022464;28;20195;-83
2021/03/14 10:47:15;;;;;;;3.22;2.00;;;8.30;70.20;;;8.16;50.71;94023.47;5038965;28;20220;-83
2021/03/14 10:49:50;;;;;;;2.72;1.70;;;8.40;70.00;;;8.24;51.22;94024.28;5029358;28;20209;-82
2021/03/14 10:52:19;;;;;;;4.05;1.80;;;8.50;69.90;;;8.38;51.60;94023.31;5072846;28;20261;-83
2021/03/14 10:54:53;;;;;;;2.90;1.80;;;8.60;70.00;;;8.51;50.26;94026.97;5073137;28;20297;-83